sensor_id;sensor_type;location;lat;lon;timestamp;pressure;altitude;pressure_sealevel;temperature;humidity
11124;BME280;5616;42.692;23.312;2023-05-01T00:02:09;95094.59;;;13.47;68.12
11124;BME280;5616;42.692;23.312;2023-05-01T00:04:37;95098.16;;;13.46;68.06
11124;BME280;5616;42.692;23.312;2023-05-01T00:07:04;95099.16;;;13.39;68.69
11124;BME280;5616;42.692;23.312;2023-05-01T00:09:30;95093.53;;;13.22;69.48
11124;BME280;5616;42.692;23.312;2023-05-01T00:11:57;95099.72;;;13.28;69.40
11124;BME280;5616;42.692;23.312;2023-05-01T00:14:24;95097.72;;;13.23;68.83
11124;BME280;5616;42.692;23.312;2023-05-01T00:16:51;95096.94;;;13.23;69.18
11124;BME280;5616;42.692;23.312;2023-05-01T00:19:18;95099.13;;;13.19;69.22
11124;BME280;5616;42.692;23.312;2023-05-01T00:21:46;95098.50;;;13.17;69.47
11124;BME280;5616;42.692;23.312;2023-05-01T00:24:13;95102.91;;;13.17;69.17
11124;BME280;5616;42.692;23.312;2023-05-01T00:26:40;95098.72;;;13.16;70.26
11124;BME280;5616;42.692;23.312;2023-05-01T00:29:07;95101.28;;;13.09;70.18
11124;BME280;5616;42.692;23.312;2023-05-01T00:31:34;95108.59;;;12.99;71.01
11124;BME280;5616;42.692;23.312;2023-05-01T00:34:01;95096.19;;;12.88;71.39
11124;BME280;5616;42.692;23.312;2023-05-01T00:36:29;95112.16;;;12.92;71.62
11124;BME280;5616;42.692;23.312;2023-05-01T00:38:57;95117.34;;;12.92;71.31
11124;BME280;5616;42.692;23.312;2023-05-01T00:41:24;95118.53;;;12.89;71.52
11124;BME280;5616;42.692;23.312;2023-05-01T00:43:51;95115.94;;;12.89;71.21
11124;BME280;5616;42.692;23.312;2023-05-01T00:46:18;95115.31;;;12.80;71.61
11124;BME280;5616;42.692;23.312;2023-05-01T00:48:46;95119.09;;;12.78;73.24
11124;BME280;5616;42.692;23.312;2023-05-01T00:51:13;95116.28;;;12.73;72.50
11124;BME280;5616;42.692;23.312;2023-05-01T00:53:40;95124.41;;;12.70;72.63
11124;BME280;5616;42.692;23.312;2023-05-01T00:56:08;95127.41;;;12.67;73.32
11124;BME280;5616;42.692;23.312;2023-05-01T00:58:36;95121.22;;;12.68;72.88
11124;BME280;5616;42.692;23.312;2023-05-01T01:01:03;95123.00;;;12.67;73.01
11124;BME280;5616;42.692;23.312;2023-05-01T01:03:30;95131.59;;;12.68;73.34
11124;BME280;5616;42.692;23.312;2023-05-01T01:06:04;95118.22;;;12.64;73.35
11124;BME280;5616;42.692;23.312;2023-05-01T01:08:37;95130.41;;;12.64;73.31
11124;BME280;5616;42.692;23.312;2023-05-01T01:11:19;95128.19;;;12.61;73.11
11124;BME280;5616;42.692;23.312;2023-05-01T01:13:53;95128.56;;;12.58;73.24
11124;BME280;5616;42.692;23.312;2023-05-01T01:16:27;95129.91;;;12.54;73.23
11124;BME280;5616;42.692;23.312;2023-05-01T01:19:13;95135.06;;;12.47;74.66
11124;BME280;5616;42.692;23.312;2023-05-01T01:21:45;95132.78;;;12.31;74.91
11124;BME280;5616;42.692;23.312;2023-05-01T01:24:45;95125.44;;;12.35;75.21
11124;BME280;5616;42.692;23.312;2023-05-01T01:36:18;95145.88;;;12.23;75.52
11124;BME280;5616;42.692;23.312;2023-05-01T01:38:53;95147.63;;;12.16;75.68
11124;BME280;5616;42.692;23.312;2023-05-01T01:41:29;95144.19;;;12.09;76.58
11124;BME280;5616;42.692;23.312;2023-05-01T01:44:01;95139.25;;;12.14;76.10
11124;BME280;5616;42.692;23.312;2023-05-01T01:46:30;95145.03;;;12.16;75.96
11124;BME280;5616;42.692;23.312;2023-05-01T01:49:05;95144.34;;;12.01;76.62
11124;BME280;5616;42.692;23.312;2023-05-01T01:51:37;95136.72;;;11.93;77.34
11124;BME280;5616;42.692;23.312;2023-05-01T01:54:08;95137.13;;;11.96;77.74
11124;BME280;5616;42.692;23.312;2023-05-01T01:56:39;95135.16;;;11.98;77.42
11124;BME280;5616;42.692;23.312;2023-05-01T01:59:08;95130.75;;;11.99;77.54
11124;BME280;5616;42.692;23.312;2023-05-01T02:01:38;95123.38;;;11.96;78.21
11124;BME280;5616;42.692;23.312;2023-05-01T02:04:06;95134.50;;;11.90;78.31
11124;BME280;5616;42.692;23.312;2023-05-01T02:06:37;95133.88;;;11.88;78.51
11124;BME280;5616;42.692;23.312;2023-05-01T02:09:05;95128.63;;;11.81;78.09
11124;BME280;5616;42.692;23.312;2023-05-01T02:11:34;95123.34;;;11.89;77.53
11124;BME280;5616;42.692;23.312;2023-05-01T02:14:03;95128.72;;;11.88;77.14
11124;BME280;5616;42.692;23.312;2023-05-01T02:16:32;95135.28;;;11.90;77.33
11124;BME280;5616;42.692;23.312;2023-05-01T02:19:01;95138.50;;;11.92;76.92
11124;BME280;5616;42.692;23.312;2023-05-01T02:21:30;95141.22;;;11.84;77.44
11124;BME280;5616;42.692;23.312;2023-05-01T02:24:00;95136.16;;;11.76;77.66
11124;BME280;5616;42.692;23.312;2023-05-01T02:26:28;95134.91;;;11.72;78.49
11124;BME280;5616;42.692;23.312;2023-05-01T02:28:55;95133.44;;;11.63;79.32
11124;BME280;5616;42.692;23.312;2023-05-01T02:31:22;95137.56;;;11.57;79.47
11124;BME280;5616;42.692;23.312;2023-05-01T02:33:49;95138.72;;;11.55;79.49
11124;BME280;5616;42.692;23.312;2023-05-01T02:36:16;95134.94;;;11.51;82.32
11124;BME280;5616;42.692;23.312;2023-05-01T02:38:43;95137.06;;;11.90;83.99
11124;BME280;5616;42.692;23.312;2023-05-01T02:41:14;95143.00;;;11.84;81.06
11124;BME280;5616;42.692;23.312;2023-05-01T02:43:42;95139.13;;;11.73;80.04
11124;BME280;5616;42.692;23.312;2023-05-01T02:46:13;95140.03;;;11.65;79.92
11124;BME280;5616;42.692;23.312;2023-05-01T02:48:42;95140.50;;;11.69;80.12
11124;BME280;5616;42.692;23.312;2023-05-01T02:51:10;95135.56;;;11.59;80.28
11124;BME280;5616;42.692;23.312;2023-05-01T02:53:38;95129.47;;;11.46;80.32
11124;BME280;5616;42.692;23.312;2023-05-01T02:56:17;95144.63;;;11.49;80.04
11124;BME280;5616;42.692;23.312;2023-05-01T02:58:44;95141.88;;;11.15;82.40
11124;BME280;5616;42.692;23.312;2023-05-01T03:01:10;95137.28;;;11.10;82.24
11124;BME280;5616;42.692;23.312;2023-05-01T03:03:37;95146.63;;;11.11;81.59
11124;BME280;5616;42.692;23.312;2023-05-01T03:06:04;95144.84;;;11.12;82.20
11124;BME280;5616;42.692;23.312;2023-05-01T03:08:31;95147.69;;;11.17;81.27
11124;BME280;5616;42.692;23.312;2023-05-01T03:10:58;95146.91;;;11.16;81.77
11124;BME280;5616;42.692;23.312;2023-05-01T03:13:26;95149.03;;;11.13;82.06
11124;BME280;5616;42.692;23.312;2023-05-01T03:15:53;95156.16;;;11.11;82.19
11124;BME280;5616;42.692;23.312;2023-05-01T03:18:20;95149.38;;;11.10;82.36
11124;BME280;5616;42.692;23.312;2023-05-01T03:20:50;95146.56;;;11.04;82.91
11124;BME280;5616;42.692;23.312;2023-05-01T03:23:18;95151.72;;;11.04;83.18
11124;BME280;5616;42.692;23.312;2023-05-01T03:25:45;95154.13;;;11.06;83.01
11124;BME280;5616;42.692;23.312;2023-05-01T03:28:12;95150.13;;;11.03;83.02
11124;BME280;5616;42.692;23.312;2023-05-01T03:30:41;95152.81;;;10.95;83.11
11124;BME280;5616;42.692;23.312;2023-05-01T03:33:07;95160.75;;;10.94;83.47
11124;BME280;5616;42.692;23.312;2023-05-01T03:35:34;95157.09;;;10.88;83.69
11124;BME280;5616;42.692;23.312;2023-05-01T03:38:03;95171.72;;;10.81;83.97
11124;BME280;5616;42.692;23.312;2023-05-01T03:40:49;95169.78;;;10.69;84.81
11124;BME280;5616;42.692;23.312;2023-05-01T03:43:34;95172.00;;;10.57;85.27
11124;BME280;5616;42.692;23.312;2023-05-01T03:46:07;95182.31;;;10.57;85.53
11124;BME280;5616;42.692;23.312;2023-05-01T03:48:34;95181.69;;;10.55;85.74
11124;BME280;5616;42.692;23.312;2023-05-01T03:51:01;95184.00;;;10.50;86.66
11124;BME280;5616;42.692;23.312;2023-05-01T03:53:28;95182.47;;;10.41;88.08
11124;BME280;5616;42.692;23.312;2023-05-01T03:55:57;95189.41;;;10.26;88.88
11124;BME280;5616;42.692;23.312;2023-05-01T03:58:24;95196.47;;;10.09;90.16
11124;BME280;5616;42.692;23.312;2023-05-01T04:00:53;95194.19;;;9.92;92.38
11124;BME280;5616;42.692;23.312;2023-05-01T04:03:23;95195.03;;;10.07;91.82
11124;BME280;5616;42.692;23.312;2023-05-01T04:05:51;95201.78;;;10.16;91.44
11124;BME280;5616;42.692;23.312;2023-05-01T04:08:18;95198.66;;;10.20;90.93
11124;BME280;5616;42.692;23.312;2023-05-01T04:10:45;95198.41;;;10.07;92.10
11124;BME280;5616;42.692;23.312;2023-05-01T04:13:12;95196.66;;;10.08;92.49
11124;BME280;5616;42.692;23.312;2023-05-01T04:15:43;95205.50;;;10.28;91.63
11124;BME280;5616;42.692;23.312;2023-05-01T04:18:10;95201.16;;;10.43;90.65
11124;BME280;5616;42.692;23.312;2023-05-01T04:20:38;95199.16;;;10.53;89.84
11124;BME280;5616;42.692;23.312;2023-05-01T04:23:06;95201.81;;;10.45;90.54
11124;BME280;5616;42.692;23.312;2023-05-01T04:25:34;95197.63;;;10.44;90.73
11124;BME280;5616;42.692;23.312;2023-05-01T04:28:06;95197.53;;;10.37;91.01
11124;BME280;5616;42.692;23.312;2023-05-01T04:30:35;95192.03;;;10.55;90.59
11124;BME280;5616;42.692;23.312;2023-05-01T04:33:02;95198.19;;;10.69;89.51
11124;BME280;5616;42.692;23.312;2023-05-01T04:35:37;95202.16;;;10.86;88.62
11124;BME280;5616;42.692;23.312;2023-05-01T04:38:05;95202.06;;;10.94;88.44
11124;BME280;5616;42.692;23.312;2023-05-01T04:40:32;95198.63;;;10.87;88.19
11124;BME280;5616;42.692;23.312;2023-05-01T04:42:59;95202.69;;;11.11;87.44
11124;BME280;5616;42.692;23.312;2023-05-01T04:45:26;95206.66;;;11.28;86.53
11124;BME280;5616;42.692;23.312;2023-05-01T04:47:54;95205.75;;;11.35;86.32
11124;BME280;5616;42.692;23.312;2023-05-01T04:50:21;95204.47;;;11.46;85.98
11124;BME280;5616;42.692;23.312;2023-05-01T04:52:49;95206.56;;;11.57;84.54
11124;BME280;5616;42.692;23.312;2023-05-01T04:55:16;95202.16;;;11.72;84.08
11124;BME280;5616;42.692;23.312;2023-05-01T04:57:59;95204.72;;;11.87;83.00
11124;BME280;5616;42.692;23.312;2023-05-01T05:00:28;95212.00;;;11.98;83.15
11124;BME280;5616;42.692;23.312;2023-05-01T05:02:56;95219.66;;;12.12;82.89
11124;BME280;5616;42.692;23.312;2023-05-01T05:05:24;95213.38;;;12.21;82.16
11124;BME280;5616;42.692;23.312;2023-05-01T05:07:53;95220.88;;;12.38;80.66
11124;BME280;5616;42.692;23.312;2023-05-01T05:10:29;95227.56;;;12.53;79.62
11124;BME280;5616;42.692;23.312;2023-05-01T05:13:28;95229.66;;;12.71;78.56
11124;BME280;5616;42.692;23.312;2023-05-01T05:16:00;95234.56;;;12.87;77.51
11124;BME280;5616;42.692;23.312;2023-05-01T05:18:27;95235.81;;;12.98;76.96
11124;BME280;5616;42.692;23.312;2023-05-01T05:20:55;95239.31;;;13.11;75.93
11124;BME280;5616;42.692;23.312;2023-05-01T05:23:24;95247.91;;;13.25;74.82
11124;BME280;5616;42.692;23.312;2023-05-01T05:25:50;95247.19;;;13.37;74.46
11124;BME280;5616;42.692;23.312;2023-05-01T05:28:18;95244.03;;;13.48;74.29
11124;BME280;5616;42.692;23.312;2023-05-01T05:30:46;95242.88;;;13.58;73.96
11124;BME280;5616;42.692;23.312;2023-05-01T05:33:15;95245.72;;;13.69;73.43
11124;BME280;5616;42.692;23.312;2023-05-01T05:35:42;95237.09;;;13.56;73.87
11124;BME280;5616;42.692;23.312;2023-05-01T05:38:09;95245.50;;;13.71;72.53
11124;BME280;5616;42.692;23.312;2023-05-01T05:40:40;95246.50;;;13.70;72.92
11124;BME280;5616;42.692;23.312;2023-05-01T05:43:07;95254.72;;;13.80;72.74
11124;BME280;5616;42.692;23.312;2023-05-01T05:45:36;95248.75;;;13.92;72.82
11124;BME280;5616;42.692;23.312;2023-05-01T05:48:03;95249.16;;;14.02;71.93
11124;BME280;5616;42.692;23.312;2023-05-01T05:50:32;95256.56;;;14.12;71.58
11124;BME280;5616;42.692;23.312;2023-05-01T05:52:59;95249.19;;;14.29;70.46
11124;BME280;5616;42.692;23.312;2023-05-01T05:55:26;95257.44;;;14.32;70.98
11124;BME280;5616;42.692;23.312;2023-05-01T05:58:03;95258.97;;;14.20;71.93
11124;BME280;5616;42.692;23.312;2023-05-01T06:00:30;95251.25;;;14.40;71.65
11124;BME280;5616;42.692;23.312;2023-05-01T06:03:01;95266.63;;;14.54;69.82
11124;BME280;5616;42.692;23.312;2023-05-01T06:05:29;95254.81;;;14.78;68.88
11124;BME280;5616;42.692;23.312;2023-05-01T06:07:56;95257.16;;;15.06;68.19
11124;BME280;5616;42.692;23.312;2023-05-01T06:10:23;95261.16;;;15.08;68.38
11124;BME280;5616;42.692;23.312;2023-05-01T06:12:50;95263.69;;;15.35;68.32
11124;BME280;5616;42.692;23.312;2023-05-01T06:15:18;95266.22;;;15.61;66.59
11124;BME280;5616;42.692;23.312;2023-05-01T06:17:51;95269.09;;;15.90;64.88
11124;BME280;5616;42.692;23.312;2023-05-01T06:20:18;95253.56;;;16.09;64.22
11124;BME280;5616;42.692;23.312;2023-05-01T06:22:45;95266.72;;;16.45;63.21
11124;BME280;5616;42.692;23.312;2023-05-01T06:25:20;95264.13;;;16.45;63.23
11124;BME280;5616;42.692;23.312;2023-05-01T06:27:48;95258.34;;;16.12;64.30
11124;BME280;5616;42.692;23.312;2023-05-01T06:30:15;95267.53;;;16.45;62.71
11124;BME280;5616;42.692;23.312;2023-05-01T06:32:45;95267.38;;;16.65;61.50
11124;BME280;5616;42.692;23.312;2023-05-01T06:35:14;95266.31;;;16.48;62.85
11124;BME280;5616;42.692;23.312;2023-05-01T06:37:41;95270.25;;;16.82;62.74
11124;BME280;5616;42.692;23.312;2023-05-01T06:40:10;95265.00;;;16.64;62.15
11124;BME280;5616;42.692;23.312;2023-05-01T06:42:37;95265.28;;;16.56;62.22
11124;BME280;5616;42.692;23.312;2023-05-01T06:45:06;95269.91;;;16.96;60.94
11124;BME280;5616;42.692;23.312;2023-05-01T06:47:33;95265.47;;;17.22;59.67
11124;BME280;5616;42.692;23.312;2023-05-01T06:50:01;95263.56;;;17.83;58.59
11124;BME280;5616;42.692;23.312;2023-05-01T06:52:29;95269.78;;;18.42;56.60
11124;BME280;5616;42.692;23.312;2023-05-01T06:54:55;95266.94;;;18.96;54.71
11124;BME280;5616;42.692;23.312;2023-05-01T06:57:23;95271.34;;;19.30;52.75
11124;BME280;5616;42.692;23.312;2023-05-01T06:59:50;95261.16;;;19.57;51.84
11124;BME280;5616;42.692;23.312;2023-05-01T07:02:17;95269.63;;;19.13;53.12
11124;BME280;5616;42.692;23.312;2023-05-01T07:04:43;95261.22;;;18.99;53.40
11124;BME280;5616;42.692;23.312;2023-05-01T07:07:11;95265.22;;;19.76;51.77
11124;BME280;5616;42.692;23.312;2023-05-01T07:09:39;95266.69;;;20.40;49.52
11124;BME280;5616;42.692;23.312;2023-05-01T07:12:06;95264.56;;;20.87;48.42
11124;BME280;5616;42.692;23.312;2023-05-01T07:14:33;95264.84;;;21.24;47.74
11124;BME280;5616;42.692;23.312;2023-05-01T07:17:00;95267.50;;;20.57;48.47
11124;BME280;5616;42.692;23.312;2023-05-01T07:19:27;95274.25;;;21.20;48.18
11124;BME280;5616;42.692;23.312;2023-05-01T07:21:53;95280.97;;;21.71;46.64
11124;BME280;5616;42.692;23.312;2023-05-01T07:24:22;95269.44;;;21.93;45.14
11124;BME280;5616;42.692;23.312;2023-05-01T07:26:48;95271.00;;;21.51;45.31
11124;BME280;5616;42.692;23.312;2023-05-01T07:29:16;95280.94;;;21.87;44.94
11124;BME280;5616;42.692;23.312;2023-05-01T07:31:42;95268.78;;;22.62;43.48
11124;BME280;5616;42.692;23.312;2023-05-01T07:34:09;95266.22;;;23.40;41.04
11124;BME280;5616;42.692;23.312;2023-05-01T07:36:37;95265.16;;;23.98;40.65
11124;BME280;5616;42.692;23.312;2023-05-01T07:39:04;95265.31;;;24.79;38.93
11124;BME280;5616;42.692;23.312;2023-05-01T07:41:32;95270.88;;;24.92;38.11
11124;BME280;5616;42.692;23.312;2023-05-01T07:43:59;95268.19;;;25.08;37.76
11124;BME280;5616;42.692;23.312;2023-05-01T07:46:25;95262.59;;;25.39;36.03
11124;BME280;5616;42.692;23.312;2023-05-01T07:48:52;95265.78;;;24.30;37.88
11124;BME280;5616;42.692;23.312;2023-05-01T07:51:19;95261.06;;;24.53;38.45
11124;BME280;5616;42.692;23.312;2023-05-01T07:53:46;95262.59;;;25.34;36.35
11124;BME280;5616;42.692;23.312;2023-05-01T07:56:13;95262.31;;;25.61;37.08
11124;BME280;5616;42.692;23.312;2023-05-01T07:58:41;95268.19;;;26.07;34.93
11124;BME280;5616;42.692;23.312;2023-05-01T08:01:09;95260.38;;;26.74;34.96
11124;BME280;5616;42.692;23.312;2023-05-01T08:03:36;95259.16;;;27.24;32.30
11124;BME280;5616;42.692;23.312;2023-05-01T08:06:03;95260.41;;;27.32;32.64
11124;BME280;5616;42.692;23.312;2023-05-01T08:08:30;95259.88;;;29.13;30.99
11124;BME280;5616;42.692;23.312;2023-05-01T08:10:56;95264.09;;;29.87;28.99
11124;BME280;5616;42.692;23.312;2023-05-01T08:13:23;95266.03;;;30.22;28.67
11124;BME280;5616;42.692;23.312;2023-05-01T08:15:51;95265.88;;;32.39;25.94
11124;BME280;5616;42.692;23.312;2023-05-01T08:18:18;95263.50;;;32.46;26.38
11124;BME280;5616;42.692;23.312;2023-05-01T08:20:45;95264.84;;;33.38;24.05
11124;BME280;5616;42.692;23.312;2023-05-01T08:23:13;95257.53;;;34.31;23.92
11124;BME280;5616;42.692;23.312;2023-05-01T08:25:40;95261.34;;;33.63;23.03
11124;BME280;5616;42.692;23.312;2023-05-01T08:28:07;95255.34;;;32.86;24.43
11124;BME280;5616;42.692;23.312;2023-05-01T08:30:34;95256.97;;;33.50;22.07
11124;BME280;5616;42.692;23.312;2023-05-01T08:33:02;95270.56;;;34.62;21.93
11124;BME280;5616;42.692;23.312;2023-05-01T08:35:29;95257.59;;;35.06;21.29
11124;BME280;5616;42.692;23.312;2023-05-01T08:37:56;95254.84;;;35.26;21.34
11124;BME280;5616;42.692;23.312;2023-05-01T08:40:23;95256.31;;;36.69;20.27
11124;BME280;5616;42.692;23.312;2023-05-01T08:42:51;95247.63;;;34.85;21.24
11124;BME280;5616;42.692;23.312;2023-05-01T08:45:20;95256.19;;;36.65;20.69
11124;BME280;5616;42.692;23.312;2023-05-01T08:47:51;95248.56;;;37.38;19.71
11124;BME280;5616;42.692;23.312;2023-05-01T08:50:20;95249.91;;;37.01;19.12
11124;BME280;5616;42.692;23.312;2023-05-01T08:52:50;95244.63;;;37.05;19.11
11124;BME280;5616;42.692;23.312;2023-05-01T08:55:18;95244.44;;;37.57;18.65
11124;BME280;5616;42.692;23.312;2023-05-01T08:57:47;95252.13;;;36.32;20.14
11124;BME280;5616;42.692;23.312;2023-05-01T09:00:17;95246.41;;;35.60;20.40
11124;BME280;5616;42.692;23.312;2023-05-01T09:02:45;95246.78;;;33.73;22.04
11124;BME280;5616;42.692;23.312;2023-05-01T09:05:14;95252.25;;;34.14;21.67
11124;BME280;5616;42.692;23.312;2023-05-01T09:07:43;95239.75;;;34.27;22.35
11124;BME280;5616;42.692;23.312;2023-05-01T09:10:11;95242.28;;;34.23;20.82
11124;BME280;5616;42.692;23.312;2023-05-01T09:12:38;95249.31;;;32.12;22.85
11124;BME280;5616;42.692;23.312;2023-05-01T09:15:07;95245.50;;;30.95;24.07
11124;BME280;5616;42.692;23.312;2023-05-01T09:17:35;95251.44;;;30.56;24.36
11124;BME280;5616;42.692;23.312;2023-05-01T09:20:03;95241.53;;;30.34;24.46
11124;BME280;5616;42.692;23.312;2023-05-01T09:22:31;95235.50;;;29.06;27.29
11124;BME280;5616;42.692;23.312;2023-05-01T09:25:00;95256.72;;;28.41;28.14
11124;BME280;5616;42.692;23.312;2023-05-01T09:27:28;95249.91;;;26.16;32.01
11124;BME280;5616;42.692;23.312;2023-05-01T09:29:55;95249.44;;;26.47;30.88
11124;BME280;5616;42.692;23.312;2023-05-01T09:32:25;95254.69;;;26.08;30.87
11124;BME280;5616;42.692;23.312;2023-05-01T09:34:53;95254.66;;;25.39;34.08
11124;BME280;5616;42.692;23.312;2023-05-01T09:37:24;95247.81;;;25.33;34.53
11124;BME280;5616;42.692;23.312;2023-05-01T09:40:05;95247.34;;;25.01;35.40
11124;BME280;5616;42.692;23.312;2023-05-01T09:42:33;95242.34;;;25.00;34.75
11124;BME280;5616;42.692;23.312;2023-05-01T09:45:02;95237.28;;;25.03;34.74
11124;BME280;5616;42.692;23.312;2023-05-01T09:47:30;95243.41;;;24.88;35.43
11124;BME280;5616;42.692;23.312;2023-05-01T09:49:58;95242.03;;;24.20;36.30
11124;BME280;5616;42.692;23.312;2023-05-01T09:52:26;95236.13;;;23.93;37.67
11124;BME280;5616;42.692;23.312;2023-05-01T09:55:13;95239.53;;;23.84;37.98
11124;BME280;5616;42.692;23.312;2023-05-01T09:57:41;95228.16;;;23.73;39.07
11124;BME280;5616;42.692;23.312;2023-05-01T10:00:09;95222.91;;;23.78;36.98
11124;BME280;5616;42.692;23.312;2023-05-01T10:02:37;95232.34;;;23.69;36.31
11124;BME280;5616;42.692;23.312;2023-05-01T10:05:05;95227.88;;;23.18;37.32
11124;BME280;5616;42.692;23.312;2023-05-01T10:07:32;95220.56;;;23.35;37.35
11124;BME280;5616;42.692;23.312;2023-05-01T10:12:55;95226.41;;;22.95;39.31
11124;BME280;5616;42.692;23.312;2023-05-01T10:15:22;95229.09;;;23.05;38.98
11124;BME280;5616;42.692;23.312;2023-05-01T10:17:49;95225.59;;;22.94;39.34
11124;BME280;5616;42.692;23.312;2023-05-01T10:20:16;95218.16;;;22.86;41.26
11124;BME280;5616;42.692;23.312;2023-05-01T10:22:43;95227.44;;;22.89;39.39
11124;BME280;5616;42.692;23.312;2023-05-01T10:25:11;95227.59;;;22.77;39.15
11124;BME280;5616;42.692;23.312;2023-05-01T10:27:39;95224.53;;;22.90;38.47
11124;BME280;5616;42.692;23.312;2023-05-01T10:30:08;95224.44;;;22.75;40.80
11124;BME280;5616;42.692;23.312;2023-05-01T10:32:36;95218.97;;;22.55;38.54
11124;BME280;5616;42.692;23.312;2023-05-01T10:35:07;95214.44;;;22.45;39.77
11124;BME280;5616;42.692;23.312;2023-05-01T10:37:40;95205.03;;;22.54;39.54
11124;BME280;5616;42.692;23.312;2023-05-01T10:40:45;95215.34;;;22.93;38.23
11124;BME280;5616;42.692;23.312;2023-05-01T10:43:22;95215.44;;;22.71;40.02
11124;BME280;5616;42.692;23.312;2023-05-01T10:46:26;95207.94;;;22.58;38.63
11124;BME280;5616;42.692;23.312;2023-05-01T10:48:57;95210.97;;;22.40;38.61
11124;BME280;5616;42.692;23.312;2023-05-01T10:51:25;95213.09;;;22.43;37.43
11124;BME280;5616;42.692;23.312;2023-05-01T10:54:25;95218.44;;;22.53;38.20
11124;BME280;5616;42.692;23.312;2023-05-01T10:56:54;95206.50;;;22.40;37.93
11124;BME280;5616;42.692;23.312;2023-05-01T10:59:21;95222.63;;;22.49;37.02
11124;BME280;5616;42.692;23.312;2023-05-01T11:01:50;95209.31;;;22.34;41.38
11124;BME280;5616;42.692;23.312;2023-05-01T11:04:49;95214.16;;;22.47;37.49
11124;BME280;5616;42.692;23.312;2023-05-01T11:07:19;95214.69;;;22.44;37.95
11124;BME280;5616;42.692;23.312;2023-05-01T11:09:48;95211.69;;;22.04;37.45
11124;BME280;5616;42.692;23.312;2023-05-01T11:15:25;95206.69;;;21.80;40.02
11124;BME280;5616;42.692;23.312;2023-05-01T11:17:54;95212.28;;;21.41;42.19
11124;BME280;5616;42.692;23.312;2023-05-01T11:20:45;95212.19;;;20.97;41.88
11124;BME280;5616;42.692;23.312;2023-05-01T11:23:22;95209.88;;;21.01;43.13
11124;BME280;5616;42.692;23.312;2023-05-01T11:26:00;95213.66;;;20.88;41.09
11124;BME280;5616;42.692;23.312;2023-05-01T11:28:29;95212.91;;;20.93;40.54
11124;BME280;5616;42.692;23.312;2023-05-01T11:30:57;95212.50;;;21.01;43.70
11124;BME280;5616;42.692;23.312;2023-05-01T11:33:27;95214.41;;;21.22;40.35
11124;BME280;5616;42.692;23.312;2023-05-01T11:35:58;95214.16;;;21.45;40.34
11124;BME280;5616;42.692;23.312;2023-05-01T11:38:25;95217.91;;;21.49;38.66
11124;BME280;5616;42.692;23.312;2023-05-01T11:40:57;95198.22;;;21.30;38.67
11124;BME280;5616;42.692;23.312;2023-05-01T11:43:25;95204.78;;;21.49;38.29
11124;BME280;5616;42.692;23.312;2023-05-01T11:45:52;95208.66;;;21.47;37.85
11124;BME280;5616;42.692;23.312;2023-05-01T11:48:30;95200.72;;;21.20;38.54
11124;BME280;5616;42.692;23.312;2023-05-01T11:50:57;95201.13;;;21.33;37.87
11124;BME280;5616;42.692;23.312;2023-05-01T11:53:24;95200.28;;;21.50;39.17
11124;BME280;5616;42.692;23.312;2023-05-01T11:55:51;95196.34;;;21.74;38.17
11124;BME280;5616;42.692;23.312;2023-05-01T11:58:29;95203.00;;;22.03;37.45
11124;BME280;5616;42.692;23.312;2023-05-01T12:00:57;95201.06;;;21.93;37.39
11124;BME280;5616;42.692;23.312;2023-05-01T12:03:24;95206.91;;;22.01;37.33
11124;BME280;5616;42.692;23.312;2023-05-01T12:05:52;95202.69;;;21.51;39.09
11124;BME280;5616;42.692;23.312;2023-05-01T12:08:20;95204.03;;;21.32;39.70
11124;BME280;5616;42.692;23.312;2023-05-01T12:10:49;95198.22;;;21.30;41.20
11124;BME280;5616;42.692;23.312;2023-05-01T12:13:17;95198.81;;;21.15;39.58
11124;BME280;5616;42.692;23.312;2023-05-01T12:15:45;95212.09;;;21.25;39.18
11124;BME280;5616;42.692;23.312;2023-05-01T12:18:13;95213.53;;;21.00;39.10
11124;BME280;5616;42.692;23.312;2023-05-01T12:20:41;95217.97;;;20.78;39.82
11124;BME280;5616;42.692;23.312;2023-05-01T12:23:11;95213.66;;;20.71;41.03
11124;BME280;5616;42.692;23.312;2023-05-01T12:25:39;95210.78;;;20.73;40.91
11124;BME280;5616;42.692;23.312;2023-05-01T12:28:08;95222.47;;;20.82;38.31
11124;BME280;5616;42.692;23.312;2023-05-01T12:30:36;95220.50;;;20.72;38.55
11124;BME280;5616;42.692;23.312;2023-05-01T12:33:10;95224.63;;;20.68;38.66
11124;BME280;5616;42.692;23.312;2023-05-01T12:35:38;95222.41;;;20.60;39.06
11124;BME280;5616;42.692;23.312;2023-05-01T12:38:11;95222.00;;;20.52;41.33
11124;BME280;5616;42.692;23.312;2023-05-01T12:40:39;95224.34;;;20.48;40.76
11124;BME280;5616;42.692;23.312;2023-05-01T12:43:06;95221.06;;;20.58;39.71
11124;BME280;5616;42.692;23.312;2023-05-01T12:45:39;95227.44;;;20.62;39.62
11124;BME280;5616;42.692;23.312;2023-05-01T12:48:11;95221.47;;;20.66;41.99
11124;BME280;5616;42.692;23.312;2023-05-01T12:50:39;95227.00;;;20.87;40.13
11124;BME280;5616;42.692;23.312;2023-05-01T12:53:06;95225.19;;;20.70;40.89
11124;BME280;5616;42.692;23.312;2023-05-01T12:55:43;95219.72;;;20.72;41.01
11124;BME280;5616;42.692;23.312;2023-05-01T12:58:11;95215.47;;;20.88;39.71
11124;BME280;5616;42.692;23.312;2023-05-01T13:00:45;95211.66;;;20.95;40.19
11124;BME280;5616;42.692;23.312;2023-05-01T13:03:13;95198.72;;;20.72;42.28
11124;BME280;5616;42.692;23.312;2023-05-01T13:05:55;95212.91;;;20.93;43.08
11124;BME280;5616;42.692;23.312;2023-05-01T13:08:29;95223.91;;;20.90;43.28
11124;BME280;5616;42.692;23.312;2023-05-01T13:11:00;95226.53;;;20.90;42.90
11124;BME280;5616;42.692;23.312;2023-05-01T13:13:28;95213.84;;;21.03;43.30
11124;BME280;5616;42.692;23.312;2023-05-01T13:16:03;95211.59;;;21.07;43.06
11124;BME280;5616;42.692;23.312;2023-05-01T13:18:31;95211.22;;;21.03;41.90
11124;BME280;5616;42.692;23.312;2023-05-01T13:21:09;95215.53;;;20.93;41.58
11124;BME280;5616;42.692;23.312;2023-05-01T13:23:37;95205.16;;;20.64;41.55
11124;BME280;5616;42.692;23.312;2023-05-01T13:26:06;95229.97;;;20.73;41.73
11124;BME280;5616;42.692;23.312;2023-05-01T13:28:34;95224.97;;;20.89;41.06